Time;durP1;ratioP1;P1;durP2;ratioP2;P2;SDS_P1;SDS_P2;PMS_P1;PMS_P2;Temp;Humidity;BMP_temperature;BMP_pressure;BME280_temperature;BME280_humidity;BME280_pressure;Samples;Min_cycle;Max_cycle;Signal;HPM_P1;HPM_P2
2021/08/25 02:45:59;;;;;;;8.07;4.47;;;14.30;99.10;;;;;;5494923;24;20239;-77
2021/08/25 02:48:25;;;;;;;8.13;4.13;;;14.30;99.10;;;;;;4833010;29;20031;-80
2021/08/25 02:50:50;;;;;;;8.32;4.40;;;14.30;99.10;;;;;;4833636;29;20365;-80
2021/08/25 02:53:17;;;;;;;9.05;4.70;;;14.30;99.00;;;;;;4833758;29;20046;-80
2021/08/25 02:55:44;;;;;;;10.00;4.50;;;14.30;99.00;;;;;;4833948;29;20030;-80
2021/08/25 02:58:10;;;;;;;8.80;5.05;;;14.30;98.90;;;;;;4833125;29;20370;-80
2021/08/25 03:00:36;;;;;;;10.60;4.45;;;14.20;98.90;;;;;;4833803;29;20106;-80
2021/08/25 03:03:02;;;;;;;10.98;5.15;;;14.20;99.00;;;;;;4833586;29;20207;-80
2021/08/25 03:05:28;;;;;;;10.00;3.97;;;14.20;99.00;;;;;;4833853;29;20038;-80
2021/08/25 03:07:53;;;;;;;10.32;5.07;;;14.10;99.00;;;;;;4833696;29;20039;-80
2021/08/25 03:10:19;;;;;;;8.43;5.03;;;14.20;99.10;;;;;;4835063;29;20222;-80
2021/08/25 03:12:45;;;;;;;7.80;4.65;;;14.10;99.20;;;;;;4833718;29;20046;-80
2021/08/25 03:15:11;;;;;;;10.25;4.97;;;14.10;99.10;;;;;;4834844;29;20046;-78
2021/08/25 03:17:37;;;;;;;10.30;4.88;;;14.10;99.20;;;;;;4833059;29;20030;-80
2021/08/25 03:20:08;;;;;;;8.80;4.43;;;14.10;99.30;;;;;;4834996;29;20475;-80
2021/08/25 03:22:34;;;;;;;10.43;4.72;;;14.10;99.30;;;;;;4833271;29;20149;-78
2021/08/25 03:25:01;;;;;;;8.13;4.20;;;14.00;99.40;;;;;;4817739;29;20034;-78
2021/08/25 03:27:27;;;;;;;10.40;4.93;;;14.10;99.40;;;;;;4834318;29;20263;-80
2021/08/25 03:29:52;;;;;;;10.93;5.00;;;14.00;99.40;;;;;;4833547;29;20057;-80
2021/08/25 03:32:18;;;;;;;8.88;4.70;;;14.00;99.50;;;;;;4817864;29;20049;-78
2021/08/25 03:34:44;;;;;;;12.00;5.38;;;14.00;99.50;;;;;;4832879;29;20033;-80
2021/08/25 03:37:10;;;;;;;9.85;4.75;;;14.00;99.60;;;;;;4818161;29;20035;-80
2021/08/25 03:39:37;;;;;;;8.90;4.50;;;14.00;99.50;;;;;;4833763;29;20018;-80
2021/08/25 03:42:03;;;;;;;12.23;4.70;;;13.90;99.60;;;;;;4833224;29;20034;-80
2021/08/25 03:44:28;;;;;;;8.88;4.88;;;13.90;99.70;;;;;;4833593;29;20050;-80
2021/08/25 03:46:54;;;;;;;11.70;4.53;;;14.00;99.70;;;;;;4833393;29;20077;-80
2021/08/25 03:49:20;;;;;;;6.82;4.22;;;14.00;99.70;;;;;;4836723;29;20034;-79
2021/08/25 03:51:46;;;;;;;10.23;5.38;;;14.00;99.70;;;;;;4821793;29;20035;-80
2021/08/25 03:54:12;;;;;;;11.73;5.13;;;14.00;99.70;;;;;;4821920;29;20322;-79
2021/08/25 03:56:37;;;;;;;12.88;4.85;;;13.90;99.70;;;;;;4821406;29;20151;-79
2021/08/25 03:59:04;;;;;;;13.60;5.35;;;13.90;99.80;;;;;;4836561;29;20132;-80
2021/08/25 04:01:30;;;;;;;8.40;4.88;;;13.90;99.90;;;;;;4836486;29;20050;-80
2021/08/25 04:03:55;;;;;;;10.02;4.45;;;13.80;99.90;;;;;;4821570;29;20042;-79
2021/08/25 04:06:21;;;;;;;13.93;4.97;;;13.80;99.90;;;;;;4836118;29;20030;-77
2021/08/25 04:08:47;;;;;;;8.23;4.13;;;13.80;99.90;;;;;;4820980;29;20034;-79
2021/08/25 04:11:20;;;;;;;8.57;4.75;;;13.80;99.90;;;;;;4836139;29;20104;-80
2021/08/25 04:13:46;;;;;;;9.90;5.38;;;13.90;99.90;;;;;;4837306;29;20026;-82
2021/08/25 04:16:12;;;;;;;15.80;5.38;;;13.80;99.90;;;;;;4836790;29;20036;-78
2021/08/25 04:18:38;;;;;;;9.10;5.10;;;13.90;99.80;;;;;;4837496;29;20354;-79
2021/08/25 04:21:04;;;;;;;8.52;5.57;;;13.90;99.70;;;;;;4821175;29;20026;-80
2021/08/25 04:23:29;;;;;;;13.63;5.47;;;13.90;99.70;;;;;;4836276;29;20087;-79
2021/08/25 04:25:55;;;;;;;13.45;4.95;;;13.90;99.60;;;;;;4842589;29;20029;-79
2021/08/25 04:28:21;;;;;;;9.00;5.03;;;13.90;99.50;;;;;;4854190;29;20033;-79
2021/08/25 04:30:47;;;;;;;9.15;5.13;;;14.00;99.60;;;;;;4838976;29;20029;-80
2021/08/25 04:33:13;;;;;;;13.90;6.05;;;14.00;99.50;;;;;;4854272;29;20809;-80
2021/08/25 04:35:38;;;;;;;9.95;5.53;;;14.00;99.30;;;;;;4855427;29;20021;-79
2021/08/25 04:38:04;;;;;;;12.93;6.43;;;14.10;99.40;;;;;;4838902;29;20065;-80
2021/08/25 04:40:30;;;;;;;7.78;4.90;;;14.10;99.30;;;;;;4838970;29;20055;-80
2021/08/25 04:42:56;;;;;;;9.57;5.32;;;14.10;99.20;;;;;;4854126;29;20034;-79
2021/08/25 04:45:22;;;;;;;12.80;5.43;;;14.10;99.30;;;;;;4854987;29;20025;-79
2021/08/25 04:47:48;;;;;;;16.20;5.00;;;14.20;99.20;;;;;;4854194;29;20040;-79
2021/08/25 04:50:14;;;;;;;11.52;5.50;;;14.20;99.20;;;;;;4854227;29;20045;-80
2021/08/25 04:52:39;;;;;;;10.18;5.90;;;14.20;99.00;;;;;;4854008;29;20303;-80
2021/08/25 04:55:06;;;;;;;9.70;4.72;;;14.20;99.00;;;;;;4838947;29;20041;-80
2021/08/25 04:57:32;;;;;;;8.68;4.75;;;14.30;98.90;;;;;;4855153;29;20224;-80
2021/08/25 04:59:57;;;;;;;9.82;5.13;;;14.30;98.90;;;;;;4837481;29;20034;-80
2021/08/25 05:02:23;;;;;;;15.07;6.15;;;14.30;98.90;;;;;;4853782;29;20030;-80
2021/08/25 05:04:49;;;;;;;12.57;4.90;;;14.30;98.80;;;;;;4838607;29;20078;-80
2021/08/25 05:07:15;;;;;;;10.57;4.60;;;14.40;98.80;;;;;;4838272;29;20030;-77
2021/08/25 05:09:41;;;;;;;11.25;4.32;;;14.50;98.80;;;;;;4838628;29;20394;-79
2021/08/25 05:12:06;;;;;;;7.88;5.20;;;14.60;98.50;;;;;;4838580;29;20022;-78
2021/08/25 05:14:32;;;;;;;9.55;5.15;;;14.80;98.10;;;;;;4837895;29;20032;-78
2021/08/25 05:16:58;;;;;;;14.90;5.15;;;14.80;97.50;;;;;;4837725;29;20058;-78
2021/08/25 05:19:24;;;;;;;12.38;5.15;;;14.90;97.40;;;;;;4852895;29;20317;-78
2021/08/25 05:21:49;;;;;;;11.70;4.43;;;15.10;97.50;;;;;;4852927;29;20318;-78
2021/08/25 05:24:15;;;;;;;8.98;4.50;;;15.10;97.10;;;;;;4852815;29;20041;-77
2021/08/25 05:26:41;;;;;;;8.75;4.45;;;15.20;97.00;;;;;;4852808;29;20046;-78
2021/08/25 05:29:07;;;;;;;13.43;5.15;;;15.30;96.80;;;;;;4852732;29;20057;-80
2021/08/25 05:31:32;;;;;;;8.82;4.47;;;15.40;96.60;;;;;;4853506;29;20046;-80
2021/08/25 05:33:58;;;;;;;9.02;4.43;;;15.40;96.30;;;;;;4838324;29;20217;-80
2021/08/25 05:36:24;;;;;;;11.68;4.88;;;15.50;96.40;;;;;;4849219;29;20022;-80
2021/08/25 05:38:51;;;;;;;20.60;4.82;;;15.60;96.30;;;;;;4848042;29;20379;-80
2021/08/25 05:41:16;;;;;;;15.30;5.60;;;15.70;96.10;;;;;;4852967;29;20026;-80
2021/08/25 05:43:42;;;;;;;12.63;4.63;;;15.70;95.30;;;;;;4852207;29;20037;-79
2021/08/25 05:46:08;;;;;;;8.35;5.00;;;15.80;95.30;;;;;;4870762;29;20104;-80
2021/08/25 05:48:34;;;;;;;17.55;5.00;;;15.80;95.30;;;;;;4845772;29;20071;-79
2021/08/25 05:50:59;;;;;;;17.60;4.78;;;15.90;94.80;;;;;;4855531;29;20037;-79
2021/08/25 05:53:25;;;;;;;10.70;5.10;;;15.90;94.30;;;;;;4868439;29;20347;-80
2021/08/25 05:55:51;;;;;;;13.35;5.25;;;15.90;94.40;;;;;;4865689;29;20329;-78
2021/08/25 05:58:17;;;;;;;11.02;5.35;;;16.00;94.50;;;;;;4831596;29;20029;-80
2021/08/25 06:00:43;;;;;;;14.88;5.05;;;16.00;93.90;;;;;;4835051;29;20034;-81
2021/08/25 06:03:09;;;;;;;15.45;4.80;;;16.00;93.70;;;;;;4819702;29;20352;-80
2021/08/25 06:05:35;;;;;;;12.90;4.75;;;16.00;93.70;;;;;;4819891;29;20329;-80
2021/08/25 06:08:01;;;;;;;10.13;4.43;;;16.20;93.60;;;;;;4819805;29;20249;-81
2021/08/25 06:10:27;;;;;;;14.32;5.10;;;16.30;93.70;;;;;;4835129;29;20057;-80
2021/08/25 06:12:53;;;;;;;11.52;5.47;;;16.50;93.30;;;;;;4819267;29;20045;-81
2021/08/25 06:15:19;;;;;;;13.65;5.00;;;16.50;92.80;;;;;;4835694;29;20286;-79
2021/08/25 06:17:45;;;;;;;10.95;5.55;;;16.60;92.60;;;;;;4835241;29;20188;-79
2021/08/25 06:20:11;;;;;;;12.93;5.22;;;16.60;92.50;;;;;;4837355;29;20328;-79
2021/08/25 06:22:37;;;;;;;8.70;4.60;;;16.50;92.60;;;;;;4854249;29;20030;-80
2021/08/25 06:25:03;;;;;;;12.90;5.32;;;16.50;92.60;;;;;;4846219;29;20620;-79
2021/08/25 06:27:29;;;;;;;11.50;4.68;;;16.50;92.20;;;;;;4823459;29;20045;-81
2021/08/25 06:29:55;;;;;;;11.18;5.85;;;16.40;92.50;;;;;;4847881;29;20030;-80
2021/08/25 06:32:21;;;;;;;14.85;5.07;;;16.40;92.50;;;;;;4856430;29;20041;-80
2021/08/25 06:34:46;;;;;;;14.07;5.10;;;16.40;92.50;;;;;;4871040;29;20056;-78
2021/08/25 06:37:12;;;;;;;9.82;5.57;;;16.40;92.30;;;;;;4861969;29;20030;-78
2021/08/25 06:39:38;;;;;;;12.98;5.85;;;16.50;92.40;;;;;;4852173;29;20361;-78
2021/08/25 06:42:04;;;;;;;11.25;5.50;;;16.60;92.30;;;;;;4842199;29;20031;-78
2021/08/25 06:44:29;;;;;;;11.02;5.82;;;16.80;91.70;;;;;;4834352;29;20026;-80
2021/08/25 06:46:55;;;;;;;11.93;5.43;;;16.90;91.60;;;;;;4848785;29;20056;-80
2021/08/25 06:49:21;;;;;;;8.85;5.25;;;17.00;91.20;;;;;;4858519;29;20046;-78
2021/08/25 06:51:47;;;;;;;11.15;5.10;;;16.90;91.00;;;;;;4855841;29;20042;-79
2021/08/25 06:54:13;;;;;;;12.90;5.07;;;17.00;91.10;;;;;;4855472;29;20025;-80
2021/08/25 06:56:38;;;;;;;10.70;5.22;;;17.10;91.00;;;;;;4871269;29;20029;-81
2021/08/25 06:59:04;;;;;;;9.30;4.65;;;17.10;90.80;;;;;;4843874;29;20056;-80
2021/08/25 07:01:30;;;;;;;15.48;5.47;;;17.20;90.50;;;;;;4853831;29;20042;-79
2021/08/25 07:03:56;;;;;;;13.68;5.72;;;17.20;90.60;;;;;;4853018;29;20042;-78
2021/08/25 07:06:22;;;;;;;12.05;5.72;;;17.30;90.30;;;;;;4852270;29;20021;-79
2021/08/25 07:08:47;;;;;;;15.75;5.35;;;17.30;90.50;;;;;;4837152;29;20050;-78
2021/08/25 07:11:13;;;;;;;14.70;5.63;;;17.40;90.10;;;;;;4837163;29;20034;-78
2021/08/25 07:13:39;;;;;;;10.07;5.22;;;17.40;90.00;;;;;;4836871;29;20038;-78
2021/08/25 07:16:07;;;;;;;11.65;5.72;;;17.60;90.20;;;;;;4824184;29;20031;-79
2021/08/25 07:18:33;;;;;;;13.32;5.30;;;17.60;90.10;;;;;;4833787;29;20018;-78
2021/08/25 07:20:59;;;;;;;8.70;5.47;;;17.90;89.60;;;;;;4818168;29;20082;-78
2021/08/25 07:23:25;;;;;;;13.95;5.15;;;18.00;87.80;;;;;;4820475;29;20065;-79
2021/08/25 07:25:51;;;;;;;12.65;5.55;;;18.00;86.70;;;;;;4821953;29;20038;-79
2021/08/25 07:28:17;;;;;;;9.18;5.55;;;17.90;86.20;;;;;;4842719;29;20038;-79
2021/08/25 07:30:42;;;;;;;12.75;4.95;;;17.80;86.60;;;;;;4836009;29;20038;-77
2021/08/25 07:33:12;;;;;;;11.68;5.45;;;17.90;86.40;;;;;;4835894;29;20180;-79
2021/08/25 07:35:39;;;;;;;7.60;4.75;;;18.00;87.00;;;;;;4836273;29;20230;-79
2021/08/25 07:38:05;;;;;;;11.00;5.30;;;18.20;87.60;;;;;;4837069;29;20027;-79
2021/08/25 07:40:30;;;;;;;7.88;5.10;;;18.30;85.40;;;;;;4838046;29;20081;-79
2021/08/25 07:42:56;;;;;;;10.13;5.85;;;18.50;85.60;;;;;;4854580;29;20034;-79
2021/08/25 07:45:22;;;;;;;8.65;4.75;;;18.60;84.80;;;;;;4854261;29;20049;-79
2021/08/25 07:47:48;;;;;;;10.68;5.80;;;18.90;84.70;;;;;;4854137;29;20105;-79
2021/08/25 07:50:14;;;;;;;10.65;5.57;;;18.90;83.00;;;;;;4839004;29;20034;-79
2021/08/25 07:52:40;;;;;;;13.80;6.10;;;19.00;82.70;;;;;;4839001;29;20101;-79
2021/08/25 07:55:06;;;;;;;8.55;4.68;;;19.20;84.10;;;;;;4853795;29;20033;-77
2021/08/25 07:57:32;;;;;;;10.65;5.47;;;19.20;82.00;;;;;;4854047;29;20221;-77
2021/08/25 07:59:57;;;;;;;11.70;4.43;;;19.30;83.20;;;;;;4853924;29;20026;-77
2021/08/25 08:02:23;;;;;;;12.90;5.10;;;19.60;82.70;;;;;;4838370;29;20048;-77
2021/08/25 08:04:49;;;;;;;10.35;5.57;;;19.70;80.40;;;;;;4853578;29;20360;-77
2021/08/25 08:07:14;;;;;;;11.93;5.80;;;19.80;77.90;;;;;;4852120;29;20125;-78
2021/08/25 08:09:40;;;;;;;10.63;5.15;;;19.70;77.00;;;;;;4836303;29;20026;-77
2021/08/25 08:12:07;;;;;;;10.05;5.28;;;19.70;78.40;;;;;;4831194;29;20036;-79
2021/08/25 08:14:33;;;;;;;19.63;6.13;;;19.90;79.10;;;;;;4850583;29;20045;-79
2021/08/25 08:17:01;;;;;;;12.52;5.55;;;20.10;78.70;;;;;;4847834;29;20042;-79
2021/08/25 08:19:33;;;;;;;13.90;5.15;;;20.50;77.60;;;;;;4846644;29;20057;-79
2021/08/25 08:22:00;;;;;;;12.48;5.43;;;20.70;76.80;;;;;;4838756;29;20052;-79
2021/08/25 08:24:27;;;;;;;11.60;4.97;;;20.60;75.80;;;;;;4854016;29;20034;-79
2021/08/25 08:26:53;;;;;;;10.90;4.93;;;20.60;77.70;;;;;;4853665;29;20090;-79
2021/08/25 08:29:19;;;;;;;12.95;5.65;;;20.50;77.80;;;;;;4852856;29;20029;-79
2021/08/25 08:31:45;;;;;;;8.77;4.43;;;20.60;74.40;;;;;;4835555;29;20038;-79
2021/08/25 08:34:10;;;;;;;10.75;5.70;;;20.40;76.60;;;;;;4852353;29;20076;-79
2021/08/25 08:36:36;;;;;;;11.35;5.57;;;20.40;75.70;;;;;;4852960;29;20030;-79
2021/08/25 08:39:03;;;;;;;10.60;5.72;;;20.30;74.70;;;;;;4838246;29;20030;-79
2021/08/25 08:41:29;;;;;;;14.27;6.07;;;20.40;74.00;;;;;;4838212;29;20109;-79
2021/08/25 08:43:55;;;;;;;17.65;5.82;;;20.30;73.00;;;;;;4838234;29;20026;-79
2021/08/25 08:46:22;;;;;;;22.07;6.13;;;20.20;71.50;;;;;;4853164;29;20054;-79
2021/08/25 08:48:48;;;;;;;;;;;20.10;72.60;;;;;;4855306;29;20255;-79
2021/08/25 08:51:20;;;;;;;12.30;5.43;;;20.20;73.30;;;;;;4838342;29;19917;-79
2021/08/25 08:53:47;;;;;;;8.40;5.00;;;20.10;73.10;;;;;;4854790;29;20049;-79
2021/08/25 08:56:13;;;;;;;31.25;7.60;;;20.20;74.90;;;;;;4837882;29;20329;-79
2021/08/25 08:58:40;;;;;;;10.93;5.35;;;20.40;74.60;;;;;;4838140;29;20162;-79
2021/08/25 09:01:07;;;;;;;12.48;6.13;;;20.40;72.80;;;;;;4852685;29;20042;-79
2021/08/25 09:03:38;;;;;;;11.98;5.90;;;20.30;72.10;;;;;;4854039;29;20044;-79
2021/08/25 09:06:07;;;;;;;10.65;5.40;;;20.20;71.80;;;;;;4819869;29;20054;-79
2021/08/25 09:08:39;;;;;;;11.27;5.97;;;20.20;73.50;;;;;;4834627;29;20034;-79
2021/08/25 09:11:11;;;;;;;10.85;5.78;;;20.30;73.50;;;;;;4830021;29;20046;-79
2021/08/25 09:13:39;;;;;;;12.43;5.60;;;20.40;72.80;;;;;;4835838;29;20079;-79
2021/08/25 09:16:05;;;;;;;12.90;6.07;;;20.80;73.20;;;;;;4835776;29;20109;-79
2021/08/25 09:18:31;;;;;;;11.02;5.10;;;21.30;71.90;;;;;;4836399;29;20031;-79
2021/08/25 09:20:57;;;;;;;13.27;6.43;;;21.80;67.80;;;;;;4843501;29;20108;-79
2021/08/25 09:23:25;;;;;;;16.92;7.45;;;22.00;64.40;;;;;;4835796;29;20350;-79
2021/08/25 09:25:54;;;;;;;21.40;7.60;;;22.10;60.60;;;;;;4834750;29;20030;-79
2021/08/25 09:28:40;;;;;;;15.68;7.13;;;22.30;58.40;;;;;;4834459;29;20138;-79
2021/08/25 09:31:07;;;;;;;11.90;7.30;;;22.20;57.70;;;;;;4835227;29;20042;-79
2021/08/25 09:33:44;;;;;;;15.73;7.78;;;22.10;59.20;;;;;;4857750;29;20302;-79
2021/08/25 09:36:12;;;;;;;16.63;5.97;;;21.90;58.40;;;;;;4844018;29;20031;-79
2021/08/25 09:38:39;;;;;;;15.60;7.60;;;21.60;58.80;;;;;;4849410;29;20316;-78
2021/08/25 09:41:06;;;;;;;12.68;6.10;;;21.20;57.80;;;;;;4849412;29;20037;-78
2021/08/25 09:43:33;;;;;;;14.13;7.13;;;21.30;58.70;;;;;;4835596;29;20030;-79
2021/08/25 09:46:26;;;;;;;12.90;6.82;;;21.30;58.20;;;;;;4848520;29;20050;-78
2021/08/25 09:48:55;;;;;;;17.65;6.88;;;21.20;58.60;;;;;;4833761;29;20038;-79
2021/08/25 09:51:38;;;;;;;11.30;6.55;;;21.00;55.30;;;;;;4844753;29;20372;-78
2021/08/25 09:54:06;;;;;;;14.38;6.63;;;21.10;56.40;;;;;;4837112;29;20325;-79
2021/08/25 09:56:34;;;;;;;13.07;6.43;;;21.40;57.90;;;;;;4836966;29;20117;-78
2021/08/25 09:59:06;;;;;;;10.65;6.30;;;21.80;55.90;;;;;;4837262;29;20102;-78
2021/08/25 10:01:32;;;;;;;18.02;7.72;;;21.90;55.00;;;;;;4852287;29;20041;-78
2021/08/25 10:03:58;;;;;;;13.02;6.85;;;21.80;54.50;;;;;;4852201;29;20034;-79
2021/08/25 10:06:26;;;;;;;13.65;7.07;;;21.50;54.60;;;;;;4836780;29;20302;-78
2021/08/25 10:08:53;;;;;;;16.85;6.97;;;21.50;55.40;;;;;;4836688;29;20096;-79
2021/08/25 10:11:29;;;;;;;14.38;7.47;;;21.70;54.60;;;;;;4853521;29;20057;-78
2021/08/25 10:13:56;;;;;;;17.75;8.00;;;22.00;53.30;;;;;;4837088;29;20041;-78
2021/08/25 10:16:40;;;;;;;;;;;22.20;52.90;;;;;;4847866;29;20039;-78
2021/08/25 10:19:36;;;;;;;15.48;6.95;;;22.50;54.40;;;;;;4834011;29;19909;-79
2021/08/25 10:22:24;;;;;;;19.70;7.32;;;22.70;54.00;;;;;;4847791;29;20136;-79
2021/08/25 10:24:53;;;;;;;15.25;7.10;;;22.50;53.30;;;;;;4834435;29;20101;-78
2021/08/25 10:27:23;;;;;;;12.88;6.85;;;22.10;53.80;;;;;;4833618;29;20226;-78
2021/08/25 10:30:01;;;;;;;15.18;7.15;;;22.10;55.50;;;;;;4834825;29;20038;-79
2021/08/25 10:32:30;;;;;;;14.95;6.38;;;22.40;53.80;;;;;;4833590;29;20097;-78
2021/08/25 10:35:11;;;;;;;18.83;7.47;;;22.50;53.60;;;;;;4818351;29;20053;-79
2021/08/25 10:37:37;;;;;;;11.43;6.47;;;22.40;53.60;;;;;;4818163;29;20030;-78
2021/08/25 10:40:05;;;;;;;11.83;6.77;;;22.70;55.30;;;;;;4833806;29;20034;-78
2021/08/25 10:42:53;;;;;;;11.63;6.53;;;22.90;53.50;;;;;;4818577;29;20058;-78
2021/08/25 10:45:38;;;;;;;14.45;6.85;;;23.20;53.60;;;;;;4834696;29;20049;-79
2021/08/25 10:48:08;;;;;;;12.88;6.93;;;23.30;52.90;;;;;;4833669;29;20049;-79
2021/08/25 10:50:46;;;;;;;12.48;7.03;;;23.60;52.40;;;;;;4834490;29;20330;-79
2021/08/25 10:53:33;;;;;;;14.05;6.78;;;23.60;51.60;;;;;;4833482;29;20057;-78
2021/08/25 10:56:13;;;;;;;12.63;6.50;;;23.40;51.80;;;;;;4818006;29;20035;-78
2021/08/25 10:59:04;;;;;;;15.25;6.45;;;23.00;52.20;;;;;;4821669;29;20026;-78
2021/08/25 11:01:46;;;;;;;16.05;6.63;;;22.70;53.40;;;;;;4829669;29;20040;-78
2021/08/25 11:04:21;;;;;;;9.65;6.05;;;22.70;54.30;;;;;;4853071;29;20026;-78
2021/08/25 11:06:58;;;;;;;11.55;6.07;;;22.70;53.70;;;;;;4841531;29;20034;-78
2021/08/25 11:09:33;;;;;;;;;;;22.60;53.20;;;;;;4855823;29;20071;-78
2021/08/25 11:12:28;;;;;;;13.82;6.40;;;22.40;52.40;;;;;;4837283;29;19947;-78
2021/08/25 11:14:57;;;;;;;14.70;6.72;;;22.30;53.50;;;;;;4754490;30;20046;-78
2021/08/25 11:17:28;;;;;;;13.57;6.47;;;22.10;54.60;;;;;;4794977;30;20046;-78
2021/08/25 11:20:05;;;;;;;12.05;6.43;;;22.00;55.20;;;;;;4799650;30;20076;-78
2021/08/25 11:22:40;;;;;;;18.40;6.70;;;21.80;55.60;;;;;;4799750;30;20099;-79
2021/08/25 11:25:11;;;;;;;12.65;6.75;;;21.60;56.10;;;;;;4799777;30;20039;-79
2021/08/25 11:27:43;;;;;;;13.85;6.22;;;21.50;57.50;;;;;;4785338;30;20104;-81
2021/08/25 11:30:24;;;;;;;11.60;6.63;;;21.60;58.00;;;;;;4785148;30;20365;-80
2021/08/25 11:33:08;;;;;;;11.70;6.22;;;22.20;56.10;;;;;;4770068;30;20051;-80
2021/08/25 11:35:45;;;;;;;10.82;6.35;;;22.70;58.10;;;;;;4770002;30;20051;-81
2021/08/25 11:38:12;;;;;;;;;;;23.10;55.50;;;;;;4767503;30;20239;-80
2021/08/25 11:40:40;;;;;;;11.48;6.45;;;23.40;53.40;;;;;;4776940;30;19909;-81
2021/08/25 11:43:07;;;;;;;14.00;6.45;;;23.50;54.00;;;;;;4758006;30;20027;-81
2021/08/25 11:45:34;;;;;;;13.13;6.55;;;23.80;52.50;;;;;;4785071;30;20116;-81
2021/08/25 11:48:01;;;;;;;19.15;6.40;;;23.80;50.30;;;;;;4784511;30;20050;-81
2021/08/25 11:50:31;;;;;;;10.88;6.05;;;23.70;50.50;;;;;;4812695;29;20039;-79
2021/08/25 11:52:57;;;;;;;12.05;6.85;;;23.90;51.90;;;;;;4857077;29;20341;-79
2021/08/25 11:55:23;;;;;;;14.25;5.82;;;24.20;50.60;;;;;;4853987;29;20041;-80
2021/08/25 11:57:50;;;;;;;11.13;5.97;;;24.40;49.90;;;;;;4856019;29;20097;-80
2021/08/25 12:00:18;;;;;;;10.88;6.15;;;24.40;49.20;;;;;;4839431;29;20097;-80
2021/08/25 12:02:51;;;;;;;14.02;5.38;;;24.20;47.80;;;;;;4854038;29;20044;-77
2021/08/25 12:05:24;;;;;;;11.30;6.25;;;23.90;47.80;;;;;;4844697;29;20109;-80
2021/08/25 12:08:05;;;;;;;10.35;5.68;;;23.40;48.70;;;;;;4836883;29;20030;-80
2021/08/25 12:10:32;;;;;;;14.38;5.80;;;23.20;49.60;;;;;;4821162;29;20031;-80
2021/08/25 12:12:58;;;;;;;;;;;23.10;51.10;;;;;;4836278;29;20042;-80
2021/08/25 12:15:44;;;;;;;15.00;6.37;;;23.00;48.70;;;;;;4843491;29;19931;-82
2021/08/25 12:18:10;;;;;;;10.85;5.95;;;22.80;49.00;;;;;;4837246;29;20102;-82
2021/08/25 12:20:37;;;;;;;16.83;6.30;;;22.70;50.10;;;;;;4844020;29;20026;-82
2021/08/25 12:23:08;;;;;;;13.38;5.60;;;22.60;50.60;;;;;;4873963;29;20287;-82
2021/08/25 12:25:43;;;;;;;10.63;6.43;;;22.50;50.70;;;;;;4858683;29;20033;-82
2021/08/25 12:28:32;;;;;;;11.25;5.90;;;22.60;51.80;;;;;;4858525;29;20033;-82
2021/08/25 12:31:13;;;;;;;15.73;6.15;;;23.00;51.90;;;;;;4802765;29;20046;-82
2021/08/25 12:33:40;;;;;;;14.75;6.55;;;23.00;50.00;;;;;;4787705;29;20051;-82
2021/08/25 12:36:19;;;;;;;;;;;23.20;51.50;;;;;;4796935;30;20039;-82
2021/08/25 12:38:44;;;;;;;13.48;6.13;;;23.70;51.10;;;;;;4770164;30;20189;-82
2021/08/25 12:41:10;;;;;;;12.48;6.55;;;24.10;50.40;;;;;;4770215;30;20031;-82
2021/08/25 12:43:36;;;;;;;13.50;6.43;;;24.50;50.80;;;;;;4770238;30;20023;-82
2021/08/25 12:46:01;;;;;;;9.80;5.72;;;24.90;49.90;;;;;;4787604;29;20046;-82
2021/08/25 12:48:27;;;;;;;12.15;6.10;;;25.00;48.20;;;;;;4763967;29;20040;-82
2021/08/25 12:50:53;;;;;;;10.30;5.90;;;25.00;48.30;;;;;;4798702;29;20214;-81
2021/08/25 12:53:19;;;;;;;11.35;6.38;;;24.80;48.00;;;;;;4783583;30;20322;-82
2021/08/25 12:55:44;;;;;;;11.45;5.82;;;24.80;49.10;;;;;;4783936;30;20334;-82
2021/08/25 12:58:10;;;;;;;10.80;6.35;;;25.00;48.10;;;;;;4797090;30;20032;-81
2021/08/25 13:00:38;;;;;;;14.60;6.57;;;25.00;48.10;;;;;;4783081;30;20051;-82
2021/08/25 13:03:05;;;;;;;11.40;7.03;;;24.80;46.70;;;;;;4768710;30;20040;-82
2021/08/25 13:05:32;;;;;;;12.60;6.38;;;24.50;47.60;;;;;;4783358;30;20081;-81
2021/08/25 13:07:57;;;;;;;13.13;6.00;;;24.40;48.10;;;;;;4803121;29;20373;-82
2021/08/25 13:10:24;;;;;;;9.75;6.20;;;24.40;48.50;;;;;;4838498;29;20033;-82
2021/08/25 13:12:49;;;;;;;11.10;6.23;;;24.30;47.90;;;;;;4838046;29;20026;-80
2021/08/25 13:15:15;;;;;;;12.63;6.75;;;24.40;47.70;;;;;;4853205;29;20340;-80
2021/08/25 13:17:41;;;;;;;11.95;6.00;;;24.40;49.20;;;;;;4837954;29;20086;-80
2021/08/25 13:20:08;;;;;;;15.25;5.35;;;24.70;48.70;;;;;;4853428;29;20121;-80
2021/08/25 13:22:34;;;;;;;10.50;6.18;;;24.80;47.70;;;;;;4853562;29;20119;-80
2021/08/25 13:25:00;;;;;;;10.23;6.37;;;24.90;47.60;;;;;;4838146;29;20112;-80
2021/08/25 13:27:26;;;;;;;10.73;6.18;;;25.10;47.60;;;;;;4842760;29;20042;-80
2021/08/25 13:29:52;;;;;;;13.00;6.65;;;25.20;47.00;;;;;;4835837;29;20038;-79
2021/08/25 13:32:18;;;;;;;12.57;7.32;;;25.20;46.50;;;;;;4835351;29;20025;-80
2021/08/25 13:34:44;;;;;;;11.82;6.53;;;25.30;46.50;;;;;;4840758;29;20055;-79
2021/08/25 13:37:12;;;;;;;21.90;7.55;;;25.30;47.00;;;;;;4827130;29;20038;-80
2021/08/25 13:39:38;;;;;;;19.50;7.00;;;25.40;46.90;;;;;;4819552;29;20038;-79
2021/08/25 13:42:04;;;;;;;12.70;5.57;;;25.50;46.00;;;;;;4819594;29;20034;-80
2021/08/25 13:44:30;;;;;;;11.55;6.30;;;25.50;46.70;;;;;;4828141;29;20044;-80
2021/08/25 13:46:55;;;;;;;11.95;6.97;;;25.50;45.40;;;;;;4853937;29;20073;-80
2021/08/25 13:49:22;;;;;;;12.27;6.18;;;25.40;46.90;;;;;;4838165;29;20255;-80
2021/08/25 13:51:47;;;;;;;11.15;6.20;;;25.60;46.00;;;;;;4854317;29;20037;-80
2021/08/25 13:54:13;;;;;;;10.90;5.97;;;25.60;47.10;;;;;;4850993;29;20090;-78
2021/08/25 13:56:39;;;;;;;14.02;6.22;;;25.70;46.40;;;;;;4861192;29;20034;-79
2021/08/25 13:59:05;;;;;;;11.77;5.47;;;25.50;44.60;;;;;;4854606;29;20097;-79
2021/08/25 14:01:30;;;;;;;9.18;5.38;;;25.30;45.00;;;;;;4838400;29;20041;-79
2021/08/25 14:03:56;;;;;;;10.43;5.68;;;25.20;44.80;;;;;;4853672;29;20041;-80
2021/08/25 14:06:22;;;;;;;9.15;6.05;;;24.90;46.50;;;;;;4838448;29;20030;-79
2021/08/25 14:08:49;;;;;;;12.40;6.28;;;24.70;47.00;;;;;;4838716;29;20326;-80
2021/08/25 14:11:16;;;;;;;9.88;6.15;;;24.50;47.30;;;;;;4835448;29;20022;-80
2021/08/25 14:13:43;;;;;;;14.45;6.43;;;24.40;48.80;;;;;;4836937;29;20049;-79
2021/08/25 14:16:10;;;;;;;12.10;7.28;;;24.50;47.20;;;;;;4844527;29;20038;-79
2021/08/25 14:18:36;;;;;;;12.50;6.63;;;24.40;48.20;;;;;;4837954;29;20018;-79
2021/08/25 14:21:02;;;;;;;13.55;6.53;;;24.50;48.70;;;;;;4838944;29;20038;-79
2021/08/25 14:23:29;;;;;;;12.43;6.20;;;24.60;47.40;;;;;;4837029;29;21557;-79
2021/08/25 14:25:55;;;;;;;11.00;5.77;;;24.70;47.70;;;;;;4827860;29;20090;-79
2021/08/25 14:28:25;;;;;;;13.37;6.30;;;24.50;47.50;;;;;;4852123;29;20350;-79
2021/08/25 14:30:52;;;;;;;12.27;5.55;;;24.60;47.80;;;;;;4821843;29;20034;-79
2021/08/25 14:33:19;;;;;;;14.85;6.00;;;24.70;48.40;;;;;;4848318;29;20038;-79
2021/08/25 14:35:45;;;;;;;15.07;6.60;;;24.80;48.00;;;;;;4836912;29;20100;-79
2021/08/25 14:38:10;;;;;;;14.63;5.93;;;24.70;48.00;;;;;;4840046;29;20078;-79
2021/08/25 14:40:36;;;;;;;8.77;5.25;;;24.80;49.40;;;;;;4839899;29;20318;-79
2021/08/25 14:43:02;;;;;;;9.93;5.88;;;24.90;48.40;;;;;;4821694;29;20045;-79
2021/08/25 14:45:28;;;;;;;13.70;5.80;;;24.70;47.80;;;;;;4845682;29;20321;-79
2021/08/25 14:47:54;;;;;;;9.98;5.78;;;24.70;48.80;;;;;;4821121;29;20050;-79
2021/08/25 14:50:20;;;;;;;13.10;6.55;;;24.80;48.60;;;;;;4848322;29;20109;-79
2021/08/25 14:52:45;;;;;;;11.82;6.30;;;24.80;48.50;;;;;;4847230;29;20064;-79
2021/08/25 14:55:11;;;;;;;10.07;6.28;;;24.70;48.40;;;;;;4846718;29;20022;-79
2021/08/25 14:57:37;;;;;;;8.38;5.15;;;24.70;48.30;;;;;;4839740;29;20033;-79
2021/08/25 15:00:04;;;;;;;10.32;5.65;;;24.70;48.70;;;;;;4840507;29;20034;-79
2021/08/25 15:02:30;;;;;;;8.85;5.60;;;24.60;48.20;;;;;;4846069;29;20038;-79
2021/08/25 15:04:55;;;;;;;13.82;5.78;;;24.30;47.50;;;;;;4845136;29;20155;-79
2021/08/25 15:07:21;;;;;;;11.20;5.95;;;24.10;48.80;;;;;;4839704;29;20124;-79
2021/08/25 15:09:48;;;;;;;13.02;6.07;;;24.10;48.90;;;;;;4848021;29;20066;-79
2021/08/25 15:12:13;;;;;;;16.10;5.65;;;24.00;49.20;;;;;;4847007;29;20226;-79
2021/08/25 15:14:39;;;;;;;8.32;5.18;;;23.80;49.50;;;;;;4865026;29;20017;-79
2021/08/25 15:17:05;;;;;;;9.15;5.40;;;23.90;49.80;;;;;;4849281;29;20082;-79
2021/08/25 15:19:32;;;;;;;10.32;5.97;;;23.80;49.70;;;;;;4839933;29;20041;-79
2021/08/25 15:21:58;;;;;;;11.33;5.43;;;23.90;49.90;;;;;;4864462;29;20219;-79
2021/08/25 15:24:31;;;;;;;10.82;5.35;;;24.00;49.70;;;;;;4840131;29;20287;-79
2021/08/25 15:26:57;;;;;;;11.48;5.88;;;23.90;49.70;;;;;;4849662;29;20054;-79
2021/08/25 15:29:23;;;;;;;10.98;5.80;;;23.80;49.60;;;;;;4841143;29;20070;-78